sensor_id;sensor_type;location;lat;lon;timestamp;P1;durP1;ratioP1;P2;durP2;ratioP2
14191;SDS011;7177;48.572;7.838;2022-08-19T00:00:44;20.83;;;18.53;;
14191;SDS011;7177;48.572;7.838;2022-08-19T00:03:09;19.80;;;17.33;;
14191;SDS011;7177;48.572;7.838;2022-08-19T00:05:35;22.00;;;19.27;;
14191;SDS011;7177;48.572;7.838;2022-08-19T00:08:01;21.63;;;17.80;;
14191;SDS011;7177;48.572;7.838;2022-08-19T00:10:27;20.57;;;18.20;;
14191;SDS011;7177;48.572;7.838;2022-08-19T00:12:53;24.50;;;20.60;;
14191;SDS011;7177;48.572;7.838;2022-08-19T00:15:19;21.90;;;18.27;;
14191;SDS011;7177;48.572;7.838;2022-08-19T00:17:46;21.57;;;18.20;;
14191;SDS011;7177;48.572;7.838;2022-08-19T00:20:14;20.13;;;17.93;;
14191;SDS011;7177;48.572;7.838;2022-08-19T00:22:42;21.30;;;18.03;;
14191;SDS011;7177;48.572;7.838;2022-08-19T00:25:09;18.50;;;16.30;;
14191;SDS011;7177;48.572;7.838;2022-08-19T00:27:35;19.83;;;16.77;;
14191;SDS011;7177;48.572;7.838;2022-08-19T00:30:01;21.27;;;17.23;;
14191;SDS011;7177;48.572;7.838;2022-08-19T00:32:28;20.77;;;17.67;;
14191;SDS011;7177;48.572;7.838;2022-08-19T00:34:54;22.23;;;18.03;;
14191;SDS011;7177;48.572;7.838;2022-08-19T00:37:21;19.60;;;15.93;;
14191;SDS011;7177;48.572;7.838;2022-08-19T00:39:48;28.87;;;20.90;;
14191;SDS011;7177;48.572;7.838;2022-08-19T00:42:14;21.27;;;17.73;;
14191;SDS011;7177;48.572;7.838;2022-08-19T00:44:40;20.57;;;17.77;;
14191;SDS011;7177;48.572;7.838;2022-08-19T00:47:06;24.57;;;19.63;;
14191;SDS011;7177;48.572;7.838;2022-08-19T00:49:35;25.10;;;20.63;;
14191;SDS011;7177;48.572;7.838;2022-08-19T00:52:07;22.17;;;19.77;;
14191;SDS011;7177;48.572;7.838;2022-08-19T00:54:37;21.80;;;18.43;;
14191;SDS011;7177;48.572;7.838;2022-08-19T00:57:05;24.23;;;19.60;;
14191;SDS011;7177;48.572;7.838;2022-08-19T00:59:34;26.90;;;20.33;;
14191;SDS011;7177;48.572;7.838;2022-08-19T01:02:03;21.57;;;18.77;;
14191;SDS011;7177;48.572;7.838;2022-08-19T01:04:29;24.93;;;19.07;;
14191;SDS011;7177;48.572;7.838;2022-08-19T01:06:55;30.10;;;21.20;;
14191;SDS011;7177;48.572;7.838;2022-08-19T01:09:21;22.87;;;20.03;;
14191;SDS011;7177;48.572;7.838;2022-08-19T01:11:47;21.77;;;19.17;;
14191;SDS011;7177;48.572;7.838;2022-08-19T01:14:13;25.60;;;20.70;;
14191;SDS011;7177;48.572;7.838;2022-08-19T01:16:40;24.93;;;20.27;;
14191;SDS011;7177;48.572;7.838;2022-08-19T01:19:11;22.40;;;20.00;;
14191;SDS011;7177;48.572;7.838;2022-08-19T01:21:51;21.17;;;17.37;;
14191;SDS011;7177;48.572;7.838;2022-08-19T01:24:24;20.27;;;17.40;;
14191;SDS011;7177;48.572;7.838;2022-08-19T01:26:50;23.00;;;18.20;;
14191;SDS011;7177;48.572;7.838;2022-08-19T01:29:16;23.90;;;19.50;;
14191;SDS011;7177;48.572;7.838;2022-08-19T01:31:41;23.63;;;19.77;;
14191;SDS011;7177;48.572;7.838;2022-08-19T01:34:07;23.60;;;20.93;;
14191;SDS011;7177;48.572;7.838;2022-08-19T01:39:02;23.47;;;19.20;;
14191;SDS011;7177;48.572;7.838;2022-08-19T01:41:30;24.53;;;19.70;;
14191;SDS011;7177;48.572;7.838;2022-08-19T01:43:56;23.03;;;19.63;;
14191;SDS011;7177;48.572;7.838;2022-08-19T01:46:21;24.33;;;19.67;;
14191;SDS011;7177;48.572;7.838;2022-08-19T01:48:47;23.57;;;19.20;;
14191;SDS011;7177;48.572;7.838;2022-08-19T01:51:13;21.03;;;18.30;;
14191;SDS011;7177;48.572;7.838;2022-08-19T01:53:39;23.70;;;19.60;;
14191;SDS011;7177;48.572;7.838;2022-08-19T01:56:05;21.57;;;18.53;;
14191;SDS011;7177;48.572;7.838;2022-08-19T01:58:32;24.07;;;20.40;;
14191;SDS011;7177;48.572;7.838;2022-08-19T02:01:01;21.53;;;17.73;;
14191;SDS011;7177;48.572;7.838;2022-08-19T02:03:28;22.20;;;18.50;;
14191;SDS011;7177;48.572;7.838;2022-08-19T02:05:54;21.90;;;17.77;;
14191;SDS011;7177;48.572;7.838;2022-08-19T02:08:29;18.40;;;16.13;;
14191;SDS011;7177;48.572;7.838;2022-08-19T02:10:55;25.57;;;18.93;;
14191;SDS011;7177;48.572;7.838;2022-08-19T02:13:21;20.00;;;17.50;;
14191;SDS011;7177;48.572;7.838;2022-08-19T02:15:47;17.10;;;15.30;;
14191;SDS011;7177;48.572;7.838;2022-08-19T02:18:12;18.17;;;15.53;;
14191;SDS011;7177;48.572;7.838;2022-08-19T02:20:39;18.73;;;15.27;;
14191;SDS011;7177;48.572;7.838;2022-08-19T02:23:05;16.37;;;14.63;;
14191;SDS011;7177;48.572;7.838;2022-08-19T02:25:32;20.97;;;17.70;;
14191;SDS011;7177;48.572;7.838;2022-08-19T02:27:57;19.87;;;17.27;;
14191;SDS011;7177;48.572;7.838;2022-08-19T02:30:23;17.57;;;15.57;;
14191;SDS011;7177;48.572;7.838;2022-08-19T02:32:49;16.50;;;14.60;;
14191;SDS011;7177;48.572;7.838;2022-08-19T02:35:16;21.60;;;18.73;;
14191;SDS011;7177;48.572;7.838;2022-08-19T02:37:42;18.90;;;16.90;;
14191;SDS011;7177;48.572;7.838;2022-08-19T02:40:27;15.63;;;13.93;;
14191;SDS011;7177;48.572;7.838;2022-08-19T02:42:54;20.77;;;16.53;;
14191;SDS011;7177;48.572;7.838;2022-08-19T02:45:19;16.00;;;13.97;;
14191;SDS011;7177;48.572;7.838;2022-08-19T02:47:45;14.70;;;13.27;;
14191;SDS011;7177;48.572;7.838;2022-08-19T02:50:11;19.00;;;17.00;;
14191;SDS011;7177;48.572;7.838;2022-08-19T02:52:37;19.70;;;15.60;;
14191;SDS011;7177;48.572;7.838;2022-08-19T02:55:03;18.97;;;16.43;;
14191;SDS011;7177;48.572;7.838;2022-08-19T02:57:29;21.70;;;16.93;;
14191;SDS011;7177;48.572;7.838;2022-08-19T02:59:56;18.30;;;16.40;;
14191;SDS011;7177;48.572;7.838;2022-08-19T03:02:22;21.17;;;17.20;;
14191;SDS011;7177;48.572;7.838;2022-08-19T03:04:48;19.47;;;16.00;;
14191;SDS011;7177;48.572;7.838;2022-08-19T03:07:14;27.83;;;18.57;;
14191;SDS011;7177;48.572;7.838;2022-08-19T03:09:41;15.97;;;13.70;;
14191;SDS011;7177;48.572;7.838;2022-08-19T03:12:07;23.17;;;18.47;;
14191;SDS011;7177;48.572;7.838;2022-08-19T03:14:34;17.40;;;15.60;;
14191;SDS011;7177;48.572;7.838;2022-08-19T03:17:00;18.07;;;15.87;;
14191;SDS011;7177;48.572;7.838;2022-08-19T03:19:25;20.17;;;18.07;;
14191;SDS011;7177;48.572;7.838;2022-08-19T03:21:52;19.93;;;16.07;;
14191;SDS011;7177;48.572;7.838;2022-08-19T03:24:18;22.67;;;17.07;;
14191;SDS011;7177;48.572;7.838;2022-08-19T03:26:46;21.77;;;18.93;;
14191;SDS011;7177;48.572;7.838;2022-08-19T03:29:13;22.13;;;18.40;;
14191;SDS011;7177;48.572;7.838;2022-08-19T03:31:40;19.97;;;17.83;;
14191;SDS011;7177;48.572;7.838;2022-08-19T03:34:07;18.83;;;16.83;;
14191;SDS011;7177;48.572;7.838;2022-08-19T03:36:34;16.17;;;14.00;;
14191;SDS011;7177;48.572;7.838;2022-08-19T03:39:00;14.30;;;12.80;;
14191;SDS011;7177;48.572;7.838;2022-08-19T03:41:28;15.23;;;13.67;;
14191;SDS011;7177;48.572;7.838;2022-08-19T03:44:01;22.00;;;18.33;;
14191;SDS011;7177;48.572;7.838;2022-08-19T03:46:28;22.43;;;18.33;;
14191;SDS011;7177;48.572;7.838;2022-08-19T03:48:56;17.13;;;14.37;;
14191;SDS011;7177;48.572;7.838;2022-08-19T03:51:24;20.73;;;17.90;;
14191;SDS011;7177;48.572;7.838;2022-08-19T03:53:56;22.93;;;18.27;;
14191;SDS011;7177;48.572;7.838;2022-08-19T03:56:23;20.73;;;18.00;;
14191;SDS011;7177;48.572;7.838;2022-08-19T03:58:53;22.10;;;18.00;;
14191;SDS011;7177;48.572;7.838;2022-08-19T04:01:20;25.67;;;20.30;;
14191;SDS011;7177;48.572;7.838;2022-08-19T04:03:48;25.30;;;19.73;;
14191;SDS011;7177;48.572;7.838;2022-08-19T04:06:21;23.20;;;19.20;;
14191;SDS011;7177;48.572;7.838;2022-08-19T04:08:49;18.50;;;16.47;;
14191;SDS011;7177;48.572;7.838;2022-08-19T04:11:18;20.17;;;17.90;;
14191;SDS011;7177;48.572;7.838;2022-08-19T04:13:48;21.40;;;17.90;;
14191;SDS011;7177;48.572;7.838;2022-08-19T04:16:16;23.67;;;17.27;;
14191;SDS011;7177;48.572;7.838;2022-08-19T04:18:42;23.63;;;19.60;;
14191;SDS011;7177;48.572;7.838;2022-08-19T04:21:08;25.07;;;20.07;;
14191;SDS011;7177;48.572;7.838;2022-08-19T04:23:40;24.60;;;19.00;;
14191;SDS011;7177;48.572;7.838;2022-08-19T04:26:06;21.07;;;18.00;;
14191;SDS011;7177;48.572;7.838;2022-08-19T04:28:31;22.07;;;17.70;;
14191;SDS011;7177;48.572;7.838;2022-08-19T04:30:57;23.43;;;18.67;;
14191;SDS011;7177;48.572;7.838;2022-08-19T04:33:24;22.67;;;20.27;;
14191;SDS011;7177;48.572;7.838;2022-08-19T04:35:50;25.67;;;22.10;;
14191;SDS011;7177;48.572;7.838;2022-08-19T04:38:17;26.90;;;20.70;;
14191;SDS011;7177;48.572;7.838;2022-08-19T04:40:47;24.67;;;19.63;;
14191;SDS011;7177;48.572;7.838;2022-08-19T04:43:34;20.37;;;18.03;;
14191;SDS011;7177;48.572;7.838;2022-08-19T04:46:05;21.00;;;18.03;;
14191;SDS011;7177;48.572;7.838;2022-08-19T04:48:36;22.20;;;19.13;;
14191;SDS011;7177;48.572;7.838;2022-08-19T04:51:05;20.23;;;18.00;;
14191;SDS011;7177;48.572;7.838;2022-08-19T04:53:34;24.03;;;19.73;;
14191;SDS011;7177;48.572;7.838;2022-08-19T04:56:04;21.37;;;18.47;;
14191;SDS011;7177;48.572;7.838;2022-08-19T04:58:35;19.67;;;17.40;;
14191;SDS011;7177;48.572;7.838;2022-08-19T05:01:01;18.00;;;15.60;;
14191;SDS011;7177;48.572;7.838;2022-08-19T05:03:27;15.83;;;14.13;;
14191;SDS011;7177;48.572;7.838;2022-08-19T05:05:58;22.27;;;19.00;;
14191;SDS011;7177;48.572;7.838;2022-08-19T05:08:23;20.27;;;17.80;;
14191;SDS011;7177;48.572;7.838;2022-08-19T05:10:50;18.70;;;16.47;;
14191;SDS011;7177;48.572;7.838;2022-08-19T05:13:17;21.03;;;18.23;;
14191;SDS011;7177;48.572;7.838;2022-08-19T05:15:44;18.07;;;15.97;;
14191;SDS011;7177;48.572;7.838;2022-08-19T05:18:19;19.57;;;17.33;;
14191;SDS011;7177;48.572;7.838;2022-08-19T05:21:12;28.17;;;22.67;;
14191;SDS011;7177;48.572;7.838;2022-08-19T05:23:58;21.67;;;17.80;;
14191;SDS011;7177;48.572;7.838;2022-08-19T05:26:24;19.37;;;17.27;;
14191;SDS011;7177;48.572;7.838;2022-08-19T05:28:51;20.50;;;18.27;;
14191;SDS011;7177;48.572;7.838;2022-08-19T05:31:17;24.93;;;21.63;;
14191;SDS011;7177;48.572;7.838;2022-08-19T05:33:43;20.70;;;18.47;;
14191;SDS011;7177;48.572;7.838;2022-08-19T05:36:08;20.40;;;18.20;;
14191;SDS011;7177;48.572;7.838;2022-08-19T05:38:34;20.97;;;18.70;;
14191;SDS011;7177;48.572;7.838;2022-08-19T05:41:01;25.60;;;22.23;;
14191;SDS011;7177;48.572;7.838;2022-08-19T05:43:33;25.57;;;22.10;;
14191;SDS011;7177;48.572;7.838;2022-08-19T05:45:59;30.93;;;26.00;;
14191;SDS011;7177;48.572;7.838;2022-08-19T05:48:24;27.67;;;22.37;;
14191;SDS011;7177;48.572;7.838;2022-08-19T05:50:51;28.63;;;23.53;;
14191;SDS011;7177;48.572;7.838;2022-08-19T05:53:17;24.07;;;21.13;;
14191;SDS011;7177;48.572;7.838;2022-08-19T05:55:43;24.73;;;21.77;;
14191;SDS011;7177;48.572;7.838;2022-08-19T05:58:09;32.40;;;23.50;;
14191;SDS011;7177;48.572;7.838;2022-08-19T06:00:35;23.73;;;21.13;;
14191;SDS011;7177;48.572;7.838;2022-08-19T06:03:01;27.63;;;23.00;;
14191;SDS011;7177;48.572;7.838;2022-08-19T06:05:28;22.93;;;20.53;;
14191;SDS011;7177;48.572;7.838;2022-08-19T06:07:55;22.83;;;20.40;;
14191;SDS011;7177;48.572;7.838;2022-08-19T06:10:21;31.13;;;21.83;;
14191;SDS011;7177;48.572;7.838;2022-08-19T06:12:47;22.90;;;20.07;;
14191;SDS011;7177;48.572;7.838;2022-08-19T06:15:13;22.00;;;19.63;;
14191;SDS011;7177;48.572;7.838;2022-08-19T06:17:39;22.60;;;20.13;;
14191;SDS011;7177;48.572;7.838;2022-08-19T06:20:07;24.67;;;21.40;;
14191;SDS011;7177;48.572;7.838;2022-08-19T06:22:37;27.37;;;20.77;;
14191;SDS011;7177;48.572;7.838;2022-08-19T06:25:07;24.67;;;20.23;;
14191;SDS011;7177;48.572;7.838;2022-08-19T06:27:34;26.83;;;20.77;;
14191;SDS011;7177;48.572;7.838;2022-08-19T06:30:00;23.70;;;20.23;;
14191;SDS011;7177;48.572;7.838;2022-08-19T06:32:27;31.60;;;25.37;;
14191;SDS011;7177;48.572;7.838;2022-08-19T06:34:53;22.43;;;20.03;;
14191;SDS011;7177;48.572;7.838;2022-08-19T06:37:19;25.53;;;20.57;;
14191;SDS011;7177;48.572;7.838;2022-08-19T06:39:46;25.00;;;19.03;;
14191;SDS011;7177;48.572;7.838;2022-08-19T06:42:13;18.27;;;16.40;;
14191;SDS011;7177;48.572;7.838;2022-08-19T06:44:41;24.90;;;19.87;;
14191;SDS011;7177;48.572;7.838;2022-08-19T06:47:08;23.70;;;20.67;;
14191;SDS011;7177;48.572;7.838;2022-08-19T06:49:36;23.40;;;20.90;;
14191;SDS011;7177;48.572;7.838;2022-08-19T06:52:01;24.10;;;20.17;;
14191;SDS011;7177;48.572;7.838;2022-08-19T06:54:28;22.73;;;20.27;;
14191;SDS011;7177;48.572;7.838;2022-08-19T06:56:57;23.07;;;18.00;;
14191;SDS011;7177;48.572;7.838;2022-08-19T06:59:25;25.60;;;20.90;;
14191;SDS011;7177;48.572;7.838;2022-08-19T07:01:54;20.40;;;18.20;;
14191;SDS011;7177;48.572;7.838;2022-08-19T07:04:22;19.03;;;17.00;;
14191;SDS011;7177;48.572;7.838;2022-08-19T07:06:55;18.30;;;16.13;;
14191;SDS011;7177;48.572;7.838;2022-08-19T07:09:26;17.47;;;15.17;;
14191;SDS011;7177;48.572;7.838;2022-08-19T07:11:52;19.67;;;17.57;;
14191;SDS011;7177;48.572;7.838;2022-08-19T07:14:19;18.73;;;16.80;;
14191;SDS011;7177;48.572;7.838;2022-08-19T07:16:50;21.63;;;19.33;;
14191;SDS011;7177;48.572;7.838;2022-08-19T07:19:19;18.23;;;16.33;;
14191;SDS011;7177;48.572;7.838;2022-08-19T07:21:46;20.43;;;17.63;;
14191;SDS011;7177;48.572;7.838;2022-08-19T07:24:14;19.67;;;16.80;;
14191;SDS011;7177;48.572;7.838;2022-08-19T07:26:42;18.33;;;16.43;;
14191;SDS011;7177;48.572;7.838;2022-08-19T07:29:08;22.30;;;18.50;;
14191;SDS011;7177;48.572;7.838;2022-08-19T07:31:35;21.10;;;16.80;;
14191;SDS011;7177;48.572;7.838;2022-08-19T07:34:03;24.97;;;17.83;;
14191;SDS011;7177;48.572;7.838;2022-08-19T07:36:35;18.60;;;16.07;;
14191;SDS011;7177;48.572;7.838;2022-08-19T07:39:04;18.73;;;16.73;;
14191;SDS011;7177;48.572;7.838;2022-08-19T07:41:34;15.60;;;13.90;;
14191;SDS011;7177;48.572;7.838;2022-08-19T07:44:00;22.33;;;17.90;;
14191;SDS011;7177;48.572;7.838;2022-08-19T07:46:30;23.47;;;17.80;;
14191;SDS011;7177;48.572;7.838;2022-08-19T07:48:56;20.37;;;17.43;;
14191;SDS011;7177;48.572;7.838;2022-08-19T07:51:22;22.77;;;19.47;;
14191;SDS011;7177;48.572;7.838;2022-08-19T07:53:48;18.03;;;16.23;;
14191;SDS011;7177;48.572;7.838;2022-08-19T07:56:15;22.03;;;17.50;;
14191;SDS011;7177;48.572;7.838;2022-08-19T07:58:43;18.23;;;16.30;;
14191;SDS011;7177;48.572;7.838;2022-08-19T08:01:11;22.30;;;16.63;;
14191;SDS011;7177;48.572;7.838;2022-08-19T08:03:40;19.63;;;16.83;;
14191;SDS011;7177;48.572;7.838;2022-08-19T08:06:24;17.00;;;15.03;;
14191;SDS011;7177;48.572;7.838;2022-08-19T08:09:09;19.13;;;15.27;;
14191;SDS011;7177;48.572;7.838;2022-08-19T08:14:20;20.77;;;16.90;;
14191;SDS011;7177;48.572;7.838;2022-08-19T08:16:48;17.87;;;15.97;;
14191;SDS011;7177;48.572;7.838;2022-08-19T08:19:15;19.60;;;17.07;;
14191;SDS011;7177;48.572;7.838;2022-08-19T08:21:41;17.83;;;15.43;;
14191;SDS011;7177;48.572;7.838;2022-08-19T08:24:07;23.20;;;17.00;;
14191;SDS011;7177;48.572;7.838;2022-08-19T08:26:32;17.97;;;14.53;;
14191;SDS011;7177;48.572;7.838;2022-08-19T08:28:58;17.33;;;14.77;;
14191;SDS011;7177;48.572;7.838;2022-08-19T08:31:24;17.90;;;15.83;;
14191;SDS011;7177;48.572;7.838;2022-08-19T08:33:49;17.07;;;15.27;;
14191;SDS011;7177;48.572;7.838;2022-08-19T08:36:15;16.00;;;14.30;;
14191;SDS011;7177;48.572;7.838;2022-08-19T08:38:41;16.80;;;14.47;;
14191;SDS011;7177;48.572;7.838;2022-08-19T08:41:17;19.77;;;15.27;;
14191;SDS011;7177;48.572;7.838;2022-08-19T08:43:52;20.27;;;15.27;;
14191;SDS011;7177;48.572;7.838;2022-08-19T08:46:30;17.53;;;14.63;;
14191;SDS011;7177;48.572;7.838;2022-08-19T08:49:33;20.27;;;15.20;;
14191;SDS011;7177;48.572;7.838;2022-08-19T08:52:10;15.53;;;13.37;;
14191;SDS011;7177;48.572;7.838;2022-08-19T08:54:41;16.60;;;14.00;;
14191;SDS011;7177;48.572;7.838;2022-08-19T08:57:13;16.00;;;14.30;;
14191;SDS011;7177;48.572;7.838;2022-08-19T08:59:47;16.57;;;13.90;;
14191;SDS011;7177;48.572;7.838;2022-08-19T09:02:16;17.83;;;15.03;;
14191;SDS011;7177;48.572;7.838;2022-08-19T09:04:45;18.23;;;14.20;;
14191;SDS011;7177;48.572;7.838;2022-08-19T09:07:31;17.50;;;14.03;;
14191;SDS011;7177;48.572;7.838;2022-08-19T09:10:40;15.93;;;13.53;;
14191;SDS011;7177;48.572;7.838;2022-08-19T09:16:07;14.07;;;12.03;;
14191;SDS011;7177;48.572;7.838;2022-08-19T09:18:48;15.37;;;12.00;;
14191;SDS011;7177;48.572;7.838;2022-08-19T09:21:20;16.80;;;12.73;;
14191;SDS011;7177;48.572;7.838;2022-08-19T09:23:50;16.67;;;13.00;;
14191;SDS011;7177;48.572;7.838;2022-08-19T09:26:17;15.33;;;11.47;;
14191;SDS011;7177;48.572;7.838;2022-08-19T09:28:45;15.13;;;11.93;;
14191;SDS011;7177;48.572;7.838;2022-08-19T09:31:13;12.30;;;11.10;;
14191;SDS011;7177;48.572;7.838;2022-08-19T09:33:41;13.50;;;12.07;;
14191;SDS011;7177;48.572;7.838;2022-08-19T09:36:10;14.20;;;11.67;;
14191;SDS011;7177;48.572;7.838;2022-08-19T09:38:37;17.50;;;12.20;;
14191;SDS011;7177;48.572;7.838;2022-08-19T09:41:14;15.60;;;12.80;;
14191;SDS011;7177;48.572;7.838;2022-08-19T09:43:43;15.97;;;12.43;;
14191;SDS011;7177;48.572;7.838;2022-08-19T09:46:10;13.90;;;12.30;;
14191;SDS011;7177;48.572;7.838;2022-08-19T09:48:36;13.90;;;12.30;;
14191;SDS011;7177;48.572;7.838;2022-08-19T09:51:10;16.40;;;12.50;;
14191;SDS011;7177;48.572;7.838;2022-08-19T09:53:40;18.17;;;12.60;;
14191;SDS011;7177;48.572;7.838;2022-08-19T09:56:07;14.53;;;12.37;;
14191;SDS011;7177;48.572;7.838;2022-08-19T09:58:33;12.87;;;11.53;;
14191;SDS011;7177;48.572;7.838;2022-08-19T10:01:00;15.40;;;12.33;;
14191;SDS011;7177;48.572;7.838;2022-08-19T10:03:27;14.13;;;12.47;;
14191;SDS011;7177;48.572;7.838;2022-08-19T10:05:55;18.10;;;13.47;;
14191;SDS011;7177;48.572;7.838;2022-08-19T10:08:24;15.53;;;12.87;;
14191;SDS011;7177;48.572;7.838;2022-08-19T10:10:54;13.47;;;11.93;;
14191;SDS011;7177;48.572;7.838;2022-08-19T10:13:22;19.47;;;10.97;;
14191;SDS011;7177;48.572;7.838;2022-08-19T10:15:54;12.43;;;11.13;;
14191;SDS011;7177;48.572;7.838;2022-08-19T10:18:22;15.23;;;12.17;;
14191;SDS011;7177;48.572;7.838;2022-08-19T10:20:49;15.37;;;12.53;;
14191;SDS011;7177;48.572;7.838;2022-08-19T10:23:15;17.60;;;12.93;;
14191;SDS011;7177;48.572;7.838;2022-08-19T10:25:41;14.30;;;12.00;;
14191;SDS011;7177;48.572;7.838;2022-08-19T10:28:08;15.13;;;12.70;;
14191;SDS011;7177;48.572;7.838;2022-08-19T10:30:36;13.73;;;12.23;;
14191;SDS011;7177;48.572;7.838;2022-08-19T10:33:04;15.87;;;12.37;;
14191;SDS011;7177;48.572;7.838;2022-08-19T10:35:30;13.90;;;12.40;;
14191;SDS011;7177;48.572;7.838;2022-08-19T10:37:56;22.80;;;12.60;;
14191;SDS011;7177;48.572;7.838;2022-08-19T10:40:26;13.57;;;12.10;;
14191;SDS011;7177;48.572;7.838;2022-08-19T10:42:52;13.20;;;10.43;;
14191;SDS011;7177;48.572;7.838;2022-08-19T10:45:21;17.37;;;11.83;;
14191;SDS011;7177;48.572;7.838;2022-08-19T10:47:49;16.73;;;11.87;;
14191;SDS011;7177;48.572;7.838;2022-08-19T10:50:15;13.93;;;12.10;;
14191;SDS011;7177;48.572;7.838;2022-08-19T10:53:02;15.20;;;11.80;;
14191;SDS011;7177;48.572;7.838;2022-08-19T10:55:30;12.37;;;11.13;;
14191;SDS011;7177;48.572;7.838;2022-08-19T10:58:15;14.27;;;11.97;;
14191;SDS011;7177;48.572;7.838;2022-08-19T11:00:42;12.47;;;11.23;;
14191;SDS011;7177;48.572;7.838;2022-08-19T11:03:15;13.40;;;11.30;;
14191;SDS011;7177;48.572;7.838;2022-08-19T11:05:40;14.77;;;10.83;;
14191;SDS011;7177;48.572;7.838;2022-08-19T11:08:07;14.20;;;11.47;;
14191;SDS011;7177;48.572;7.838;2022-08-19T11:10:36;13.07;;;11.23;;
14191;SDS011;7177;48.572;7.838;2022-08-19T11:13:05;13.97;;;12.43;;
14191;SDS011;7177;48.572;7.838;2022-08-19T11:15:32;15.37;;;11.47;;
14191;SDS011;7177;48.572;7.838;2022-08-19T11:17:58;14.67;;;12.30;;
14191;SDS011;7177;48.572;7.838;2022-08-19T11:20:23;13.23;;;11.83;;
14191;SDS011;7177;48.572;7.838;2022-08-19T11:22:50;12.33;;;10.47;;
14191;SDS011;7177;48.572;7.838;2022-08-19T11:25:17;13.13;;;10.10;;
14191;SDS011;7177;48.572;7.838;2022-08-19T11:27:42;14.97;;;11.70;;
14191;SDS011;7177;48.572;7.838;2022-08-19T11:30:09;14.13;;;11.53;;
14191;SDS011;7177;48.572;7.838;2022-08-19T11:32:37;11.97;;;10.30;;
14191;SDS011;7177;48.572;7.838;2022-08-19T11:35:02;12.97;;;11.67;;
14191;SDS011;7177;48.572;7.838;2022-08-19T11:37:28;12.27;;;10.97;;
14191;SDS011;7177;48.572;7.838;2022-08-19T11:39:54;13.00;;;10.73;;
14191;SDS011;7177;48.572;7.838;2022-08-19T11:42:19;12.10;;;10.80;;
14191;SDS011;7177;48.572;7.838;2022-08-19T11:45:04;12.83;;;11.27;;
14191;SDS011;7177;48.572;7.838;2022-08-19T11:47:30;11.80;;;10.60;;
14191;SDS011;7177;48.572;7.838;2022-08-19T11:49:55;11.43;;;10.23;;
14191;SDS011;7177;48.572;7.838;2022-08-19T11:52:21;12.20;;;10.67;;
14191;SDS011;7177;48.572;7.838;2022-08-19T11:54:46;9.90;;;8.90;;
14191;SDS011;7177;48.572;7.838;2022-08-19T11:57:12;11.27;;;9.53;;
14191;SDS011;7177;48.572;7.838;2022-08-19T11:59:39;11.33;;;9.40;;
14191;SDS011;7177;48.572;7.838;2022-08-19T12:02:05;11.03;;;9.83;;
14191;SDS011;7177;48.572;7.838;2022-08-19T12:04:30;10.27;;;9.13;;
14191;SDS011;7177;48.572;7.838;2022-08-19T12:06:56;10.40;;;8.37;;
14191;SDS011;7177;48.572;7.838;2022-08-19T12:09:21;11.17;;;8.33;;
14191;SDS011;7177;48.572;7.838;2022-08-19T12:11:47;8.97;;;7.97;;
14191;SDS011;7177;48.572;7.838;2022-08-19T12:14:13;9.10;;;8.17;;
14191;SDS011;7177;48.572;7.838;2022-08-19T12:16:39;8.93;;;7.57;;
14191;SDS011;7177;48.572;7.838;2022-08-19T12:19:06;11.57;;;8.10;;
14191;SDS011;7177;48.572;7.838;2022-08-19T12:21:33;9.07;;;7.07;;
14191;SDS011;7177;48.572;7.838;2022-08-19T12:24:00;6.50;;;5.83;;
14191;SDS011;7177;48.572;7.838;2022-08-19T12:26:28;6.30;;;5.70;;
14191;SDS011;7177;48.572;7.838;2022-08-19T12:28:56;6.73;;;5.73;;
14191;SDS011;7177;48.572;7.838;2022-08-19T12:31:24;6.13;;;5.50;;
14191;SDS011;7177;48.572;7.838;2022-08-19T12:33:50;6.50;;;5.80;;
14191;SDS011;7177;48.572;7.838;2022-08-19T12:36:17;6.87;;;5.63;;
14191;SDS011;7177;48.572;7.838;2022-08-19T12:38:43;6.27;;;5.30;;
14191;SDS011;7177;48.572;7.838;2022-08-19T12:41:10;7.40;;;5.63;;
14191;SDS011;7177;48.572;7.838;2022-08-19T12:43:37;7.80;;;7.10;;
14191;SDS011;7177;48.572;7.838;2022-08-19T12:46:03;6.43;;;5.70;;
14191;SDS011;7177;48.572;7.838;2022-08-19T12:48:31;7.17;;;5.60;;
14191;SDS011;7177;48.572;7.838;2022-08-19T12:50:57;6.67;;;5.97;;
14191;SDS011;7177;48.572;7.838;2022-08-19T12:53:23;9.73;;;6.40;;
14191;SDS011;7177;48.572;7.838;2022-08-19T12:55:55;8.20;;;6.33;;
14191;SDS011;7177;48.572;7.838;2022-08-19T12:58:21;6.63;;;6.03;;
14191;SDS011;7177;48.572;7.838;2022-08-19T13:00:47;7.10;;;6.40;;
14191;SDS011;7177;48.572;7.838;2022-08-19T13:03:13;7.30;;;6.60;;
14191;SDS011;7177;48.572;7.838;2022-08-19T13:05:40;6.90;;;6.23;;
14191;SDS011;7177;48.572;7.838;2022-08-19T13:08:06;7.40;;;6.70;;
14191;SDS011;7177;48.572;7.838;2022-08-19T13:10:32;10.70;;;6.40;;
14191;SDS011;7177;48.572;7.838;2022-08-19T13:12:59;7.00;;;5.60;;
14191;SDS011;7177;48.572;7.838;2022-08-19T13:15:27;5.90;;;5.40;;
14191;SDS011;7177;48.572;7.838;2022-08-19T13:17:55;7.17;;;5.57;;
14191;SDS011;7177;48.572;7.838;2022-08-19T13:20:21;5.77;;;5.27;;
14191;SDS011;7177;48.572;7.838;2022-08-19T13:22:47;7.10;;;5.97;;
14191;SDS011;7177;48.572;7.838;2022-08-19T13:25:13;6.47;;;5.90;;
14191;SDS011;7177;48.572;7.838;2022-08-19T13:27:41;6.23;;;5.60;;
14191;SDS011;7177;48.572;7.838;2022-08-19T13:30:08;7.77;;;5.83;;
14191;SDS011;7177;48.572;7.838;2022-08-19T13:32:53;6.57;;;5.73;;
14191;SDS011;7177;48.572;7.838;2022-08-19T13:35:38;6.57;;;5.30;;
14191;SDS011;7177;48.572;7.838;2022-08-19T13:38:12;7.83;;;5.87;;
14191;SDS011;7177;48.572;7.838;2022-08-19T13:40:40;6.73;;;6.03;;
14191;SDS011;7177;48.572;7.838;2022-08-19T13:43:06;6.00;;;5.50;;
14191;SDS011;7177;48.572;7.838;2022-08-19T13:45:33;6.87;;;5.73;;
14191;SDS011;7177;48.572;7.838;2022-08-19T13:47:59;7.60;;;5.90;;
14191;SDS011;7177;48.572;7.838;2022-08-19T13:50:31;7.13;;;5.23;;
14191;SDS011;7177;48.572;7.838;2022-08-19T13:52:58;6.23;;;5.63;;
14191;SDS011;7177;48.572;7.838;2022-08-19T13:55:24;6.60;;;5.83;;
14191;SDS011;7177;48.572;7.838;2022-08-19T13:57:52;5.80;;;5.30;;
14191;SDS011;7177;48.572;7.838;2022-08-19T14:00:19;6.27;;;5.30;;
14191;SDS011;7177;48.572;7.838;2022-08-19T14:02:46;8.30;;;5.47;;
14191;SDS011;7177;48.572;7.838;2022-08-19T14:05:15;6.20;;;5.67;;
14191;SDS011;7177;48.572;7.838;2022-08-19T14:07:40;6.40;;;5.80;;
14191;SDS011;7177;48.572;7.838;2022-08-19T14:10:07;6.73;;;5.70;;
14191;SDS011;7177;48.572;7.838;2022-08-19T14:12:34;7.20;;;5.63;;
14191;SDS011;7177;48.572;7.838;2022-08-19T14:15:00;6.50;;;5.83;;
14191;SDS011;7177;48.572;7.838;2022-08-19T14:17:27;6.77;;;5.70;;
14191;SDS011;7177;48.572;7.838;2022-08-19T14:19:57;6.77;;;6.07;;
14191;SDS011;7177;48.572;7.838;2022-08-19T14:22:25;6.50;;;5.90;;
14191;SDS011;7177;48.572;7.838;2022-08-19T14:24:51;7.47;;;6.10;;
14191;SDS011;7177;48.572;7.838;2022-08-19T14:27:16;11.17;;;5.80;;
14191;SDS011;7177;48.572;7.838;2022-08-19T14:29:42;6.83;;;5.67;;
14191;SDS011;7177;48.572;7.838;2022-08-19T14:32:09;6.27;;;5.67;;
14191;SDS011;7177;48.572;7.838;2022-08-19T14:34:34;7.50;;;5.97;;
14191;SDS011;7177;48.572;7.838;2022-08-19T14:37:02;6.13;;;5.50;;
14191;SDS011;7177;48.572;7.838;2022-08-19T14:39:27;6.27;;;5.67;;
14191;SDS011;7177;48.572;7.838;2022-08-19T14:41:53;7.13;;;5.97;;
14191;SDS011;7177;48.572;7.838;2022-08-19T14:44:18;11.23;;;5.93;;
14191;SDS011;7177;48.572;7.838;2022-08-19T14:46:44;6.80;;;6.20;;
14191;SDS011;7177;48.572;7.838;2022-08-19T14:49:10;10.13;;;6.67;;
14191;SDS011;7177;48.572;7.838;2022-08-19T14:51:35;6.90;;;6.00;;
14191;SDS011;7177;48.572;7.838;2022-08-19T14:54:01;7.37;;;6.50;;